Terminal Aerodrome Forecast
Issued by NWS Sioux Falls, SD

Home | Current Version | Previous Version | Text Only | Print | Product List | Glossary On
Versions: 1 2 3 4 5 6 7 8 9 10 11 12 13 14 15 16 17 18 19
000
FTUS43 KFSD 121700
TAFFSD
TAF
KFSD 121728Z 1218/1318 VRB05KT P6SM SCT045 BKN140
      TEMPO 1218/1220 -SHRA SCT025 BKN045
     FM122100 06006KT P6SM SCT030 BKN150
     FM130000 VRB04KT P6SM SCT200
     FM130600 29005KT 3SM BR SKC
     FM131300 32008KT P6SM SCT050=

USA.gov is the U.S. government's official web portal to all federal, state and local government web resources and services.